Terminal Aerodrome Forecast
Issued by NWS

Current Version | Previous Version | Text Only | Print | Product List | Glossary On
Versions: 1 2 3 4 5 6 7 8 9 10 11 12 13 14 15 16 17 18
114
FTUS44 KCRP 292340
TAFALI
TAF
KALI 292340Z 3000/3024 15012KT P6SM BKN040 OVC060
     FM300300 14009KT P6SM BKN025 OVC040
     FM300800 17004KT P6SM BKN009 OVC025
      TEMPO 3010/3013 5SM BR
     FM301500 VRB06KT 6SM HZ VCSH BKN015
     FM301700 02007KT P6SM VCTS BKN030CB
     FM302100 09005KT P6SM SCT040=

USA.gov is the U.S. government's official web portal to all federal, state and local government web resources and services.